sensor_id;sensor_type;location;lat;lon;timestamp;pressure;altitude;pressure_sealevel;temperature;humidity
59337;BME280;45115;52.002;4.686;2022-09-03T00:02:11;101092.38;;;17.00;56.17
59337;BME280;45115;52.002;4.686;2022-09-03T00:04:47;101095.47;;;16.93;56.33
59337;BME280;45115;52.002;4.686;2022-09-03T00:07:21;101092.16;;;16.87;56.67
59337;BME280;45115;52.002;4.686;2022-09-03T00:09:56;101083.25;;;16.78;56.71
59337;BME280;45115;52.002;4.686;2022-09-03T00:12:28;101092.88;;;16.79;57.18
59337;BME280;45115;52.002;4.686;2022-09-03T00:15:01;101083.06;;;16.74;57.31
59337;BME280;45115;52.002;4.686;2022-09-03T00:17:31;101087.44;;;16.70;57.47
59337;BME280;45115;52.002;4.686;2022-09-03T00:20:02;101080.22;;;16.71;57.39
59337;BME280;45115;52.002;4.686;2022-09-03T00:22:32;101080.97;;;16.71;57.54
59337;BME280;45115;52.002;4.686;2022-09-03T00:25:04;101087.16;;;16.72;57.46
59337;BME280;45115;52.002;4.686;2022-09-03T00:27:36;101074.47;;;16.64;57.90
59337;BME280;45115;52.002;4.686;2022-09-03T00:30:09;101073.06;;;16.66;57.83
59337;BME280;45115;52.002;4.686;2022-09-03T00:32:39;101076.06;;;16.65;57.45
59337;BME280;45115;52.002;4.686;2022-09-03T00:35:15;101073.06;;;16.66;57.91
59337;BME280;45115;52.002;4.686;2022-09-03T00:37:45;101068.03;;;16.65;57.64
59337;BME280;45115;52.002;4.686;2022-09-03T00:40:21;101067.28;;;16.50;58.39
59337;BME280;45115;52.002;4.686;2022-09-03T00:42:59;101071.53;;;16.51;58.35
59337;BME280;45115;52.002;4.686;2022-09-03T00:45:38;101072.75;;;16.45;58.93
59337;BME280;45115;52.002;4.686;2022-09-03T00:48:14;101074.72;;;16.39;59.05
59337;BME280;45115;52.002;4.686;2022-09-03T00:50:49;101071.06;;;16.35;59.41
59337;BME280;45115;52.002;4.686;2022-09-03T00:53:24;101073.63;;;16.40;59.22
59337;BME280;45115;52.002;4.686;2022-09-03T00:55:58;101075.34;;;16.36;59.47
59337;BME280;45115;52.002;4.686;2022-09-03T00:58:40;101081.00;;;16.34;59.58
59337;BME280;45115;52.002;4.686;2022-09-03T01:01:15;101073.38;;;16.28;59.47
59337;BME280;45115;52.002;4.686;2022-09-03T01:03:51;101079.22;;;16.30;60.25
59337;BME280;45115;52.002;4.686;2022-09-03T01:06:28;101081.88;;;16.30;60.09
59337;BME280;45115;52.002;4.686;2022-09-03T01:09:05;101079.00;;;16.40;59.16
59337;BME280;45115;52.002;4.686;2022-09-03T01:11:40;101080.59;;;16.41;59.07
59337;BME280;45115;52.002;4.686;2022-09-03T01:14:18;101079.31;;;16.39;59.51
59337;BME280;45115;52.002;4.686;2022-09-03T01:16:53;101077.81;;;16.32;59.64
59337;BME280;45115;52.002;4.686;2022-09-03T01:19:38;101079.31;;;16.39;59.49
59337;BME280;45115;52.002;4.686;2022-09-03T01:22:24;101076.31;;;16.40;59.23
59337;BME280;45115;52.002;4.686;2022-09-03T01:25:14;101072.25;;;16.43;59.24
59337;BME280;45115;52.002;4.686;2022-09-03T01:28:05;101081.25;;;16.47;59.68
59337;BME280;45115;52.002;4.686;2022-09-03T01:30:41;101082.84;;;16.48;59.25
59337;BME280;45115;52.002;4.686;2022-09-03T01:33:16;101082.84;;;16.48;58.96
59337;BME280;45115;52.002;4.686;2022-09-03T01:35:47;101080.56;;;16.55;58.85
59337;BME280;45115;52.002;4.686;2022-09-03T01:38:19;101087.38;;;16.62;58.47
59337;BME280;45115;52.002;4.686;2022-09-03T01:40:58;101081.22;;;16.61;58.39
59337;BME280;45115;52.002;4.686;2022-09-03T01:43:55;101089.66;;;16.68;58.16
59337;BME280;45115;52.002;4.686;2022-09-03T01:46:37;101082.72;;;16.67;58.17
59337;BME280;45115;52.002;4.686;2022-09-03T01:49:10;101084.59;;;16.67;57.84
59337;BME280;45115;52.002;4.686;2022-09-03T01:51:45;101079.63;;;16.60;58.26
59337;BME280;45115;52.002;4.686;2022-09-03T01:54:26;101080.75;;;16.59;58.22
59337;BME280;45115;52.002;4.686;2022-09-03T01:57:17;101079.75;;;16.55;58.45
59337;BME280;45115;52.002;4.686;2022-09-03T01:59:52;101078.28;;;16.49;59.06
59337;BME280;45115;52.002;4.686;2022-09-03T02:02:24;101075.66;;;16.34;59.16
59337;BME280;45115;52.002;4.686;2022-09-03T02:04:58;101076.53;;;16.30;59.45
59337;BME280;45115;52.002;4.686;2022-09-03T02:07:29;101071.28;;;16.25;59.86
59337;BME280;45115;52.002;4.686;2022-09-03T02:09:58;101072.09;;;16.25;60.02
59337;BME280;45115;52.002;4.686;2022-09-03T02:12:24;101071.28;;;16.25;60.04
59337;BME280;45115;52.002;4.686;2022-09-03T02:14:53;101070.09;;;16.17;60.15
59337;BME280;45115;52.002;4.686;2022-09-03T02:17:20;101071.00;;;16.12;60.36
59337;BME280;45115;52.002;4.686;2022-09-03T02:19:47;101070.53;;;16.10;60.60
59337;BME280;45115;52.002;4.686;2022-09-03T02:22:14;101061.88;;;16.13;60.37
59337;BME280;45115;52.002;4.686;2022-09-03T02:24:40;101060.00;;;16.14;60.34
59337;BME280;45115;52.002;4.686;2022-09-03T02:27:08;101053.09;;;16.13;60.19
59337;BME280;45115;52.002;4.686;2022-09-03T02:29:34;101064.84;;;16.12;60.60
59337;BME280;45115;52.002;4.686;2022-09-03T02:32:03;101061.69;;;16.10;60.65
59337;BME280;45115;52.002;4.686;2022-09-03T02:34:29;101059.72;;;16.01;60.96
59337;BME280;45115;52.002;4.686;2022-09-03T02:36:56;101055.47;;;16.00;60.91
59337;BME280;45115;52.002;4.686;2022-09-03T02:39:22;101060.69;;;15.91;61.46
59337;BME280;45115;52.002;4.686;2022-09-03T02:41:53;101060.31;;;15.84;61.83
59337;BME280;45115;52.002;4.686;2022-09-03T02:44:23;101065.25;;;15.77;62.11
59337;BME280;45115;52.002;4.686;2022-09-03T02:46:56;101055.84;;;15.65;62.77
59337;BME280;45115;52.002;4.686;2022-09-03T02:49:25;101057.63;;;15.56;62.63
59337;BME280;45115;52.002;4.686;2022-09-03T02:51:56;101065.44;;;15.52;62.93
59337;BME280;45115;52.002;4.686;2022-09-03T02:54:25;101059.91;;;15.49;63.37
59337;BME280;45115;52.002;4.686;2022-09-03T02:56:53;101061.06;;;15.43;63.74
59337;BME280;45115;52.002;4.686;2022-09-03T02:59:20;101066.59;;;15.32;64.16
59337;BME280;45115;52.002;4.686;2022-09-03T03:01:47;101056.88;;;15.22;64.77
59337;BME280;45115;52.002;4.686;2022-09-03T03:04:14;101062.13;;;15.27;64.63
59337;BME280;45115;52.002;4.686;2022-09-03T03:06:42;101057.47;;;15.19;65.26
59337;BME280;45115;52.002;4.686;2022-09-03T03:09:09;101052.81;;;15.25;65.05
59337;BME280;45115;52.002;4.686;2022-09-03T03:11:35;101050.84;;;15.17;65.49
59337;BME280;45115;52.002;4.686;2022-09-03T03:14:03;101053.78;;;15.15;65.37
59337;BME280;45115;52.002;4.686;2022-09-03T03:16:30;101057.44;;;15.05;65.66
59337;BME280;45115;52.002;4.686;2022-09-03T03:18:57;101061.66;;;14.92;66.30
59337;BME280;45115;52.002;4.686;2022-09-03T03:21:24;101057.09;;;14.93;66.79
59337;BME280;45115;52.002;4.686;2022-09-03T03:23:53;101061.22;;;14.85;66.76
59337;BME280;45115;52.002;4.686;2022-09-03T03:26:21;101055.50;;;14.72;67.59
59337;BME280;45115;52.002;4.686;2022-09-03T03:28:49;101050.97;;;14.73;67.94
59337;BME280;45115;52.002;4.686;2022-09-03T03:31:21;101046.75;;;14.67;68.06
59337;BME280;45115;52.002;4.686;2022-09-03T03:33:50;101054.06;;;14.61;68.33
59337;BME280;45115;52.002;4.686;2022-09-03T03:36:17;101063.94;;;14.60;68.56
59337;BME280;45115;52.002;4.686;2022-09-03T03:38:44;101062.72;;;14.53;69.23
59337;BME280;45115;52.002;4.686;2022-09-03T03:41:14;101057.03;;;14.59;68.85
59337;BME280;45115;52.002;4.686;2022-09-03T03:43:41;101061.56;;;14.59;68.73
59337;BME280;45115;52.002;4.686;2022-09-03T03:46:08;101053.94;;;14.52;69.01
59337;BME280;45115;52.002;4.686;2022-09-03T03:48:35;101061.63;;;14.54;69.47
59337;BME280;45115;52.002;4.686;2022-09-03T03:51:05;101060.91;;;14.48;68.93
59337;BME280;45115;52.002;4.686;2022-09-03T03:53:32;101063.88;;;14.46;69.47
59337;BME280;45115;52.002;4.686;2022-09-03T03:56:01;101056.66;;;14.47;69.57
59337;BME280;45115;52.002;4.686;2022-09-03T03:58:29;101056.97;;;14.45;69.53
59337;BME280;45115;52.002;4.686;2022-09-03T04:01:03;101051.41;;;14.42;69.49
59337;BME280;45115;52.002;4.686;2022-09-03T04:03:30;101059.41;;;14.42;69.13
59337;BME280;45115;52.002;4.686;2022-09-03T04:05:58;101059.34;;;14.47;69.28
59337;BME280;45115;52.002;4.686;2022-09-03T04:08:25;101067.34;;;14.47;69.13
59337;BME280;45115;52.002;4.686;2022-09-03T04:10:51;101071.25;;;14.55;69.26
59337;BME280;45115;52.002;4.686;2022-09-03T04:13:18;101068.06;;;14.53;69.39
59337;BME280;45115;52.002;4.686;2022-09-03T04:15:47;101060.63;;;14.50;69.13
59337;BME280;45115;52.002;4.686;2022-09-03T04:18:17;101062.28;;;14.45;69.85
59337;BME280;45115;52.002;4.686;2022-09-03T04:20:43;101060.25;;;14.37;69.90
59337;BME280;45115;52.002;4.686;2022-09-03T04:23:10;101058.97;;;14.34;70.10
59337;BME280;45115;52.002;4.686;2022-09-03T04:25:37;101057.66;;;14.32;70.07
59337;BME280;45115;52.002;4.686;2022-09-03T04:28:05;101063.88;;;14.27;70.50
59337;BME280;45115;52.002;4.686;2022-09-03T04:30:31;101055.28;;;14.30;70.17
59337;BME280;45115;52.002;4.686;2022-09-03T04:32:59;101055.06;;;14.27;70.37
59337;BME280;45115;52.002;4.686;2022-09-03T04:35:26;101054.28;;;14.26;70.51
59337;BME280;45115;52.002;4.686;2022-09-03T04:37:56;101055.06;;;14.27;70.64
59337;BME280;45115;52.002;4.686;2022-09-03T04:40:23;101049.28;;;14.19;71.20
59337;BME280;45115;52.002;4.686;2022-09-03T04:42:50;101048.94;;;14.26;71.02
59337;BME280;45115;52.002;4.686;2022-09-03T04:45:16;101048.72;;;14.23;70.90
59337;BME280;45115;52.002;4.686;2022-09-03T04:47:44;101048.72;;;14.23;71.04
59337;BME280;45115;52.002;4.686;2022-09-03T04:50:13;101055.44;;;14.20;71.26
59337;BME280;45115;52.002;4.686;2022-09-03T04:52:40;101048.53;;;14.14;71.47
59337;BME280;45115;52.002;4.686;2022-09-03T04:55:07;101054.69;;;14.14;71.62
59337;BME280;45115;52.002;4.686;2022-09-03T04:57:35;101049.63;;;14.13;71.92
59337;BME280;45115;52.002;4.686;2022-09-03T05:00:03;101050.94;;;14.15;71.70
59337;BME280;45115;52.002;4.686;2022-09-03T05:02:30;101053.88;;;14.14;71.38
59337;BME280;45115;52.002;4.686;2022-09-03T05:04:57;101058.44;;;14.13;71.76
59337;BME280;45115;52.002;4.686;2022-09-03T05:07:25;101056.34;;;14.10;71.66
59337;BME280;45115;52.002;4.686;2022-09-03T05:09:53;101058.78;;;14.06;72.12
59337;BME280;45115;52.002;4.686;2022-09-03T05:12:20;101058.03;;;14.01;72.43
59337;BME280;45115;52.002;4.686;2022-09-03T05:14:47;101057.53;;;13.99;72.72
59337;BME280;45115;52.002;4.686;2022-09-03T05:17:14;101060.56;;;13.92;73.27
59337;BME280;45115;52.002;4.686;2022-09-03T05:19:41;101055.16;;;13.97;72.93
59337;BME280;45115;52.002;4.686;2022-09-03T05:22:07;101058.34;;;13.99;73.17
59337;BME280;45115;52.002;4.686;2022-09-03T05:24:35;101055.44;;;13.95;72.88
59337;BME280;45115;52.002;4.686;2022-09-03T05:27:02;101062.75;;;14.09;73.05
59337;BME280;45115;52.002;4.686;2022-09-03T05:29:29;101060.31;;;14.13;72.54
59337;BME280;45115;52.002;4.686;2022-09-03T05:31:55;101057.56;;;14.18;72.87
59337;BME280;45115;52.002;4.686;2022-09-03T05:34:23;101066.59;;;14.22;72.30
59337;BME280;45115;52.002;4.686;2022-09-03T05:36:49;101060.38;;;14.27;72.07
59337;BME280;45115;52.002;4.686;2022-09-03T05:39:17;101065.44;;;14.28;72.17
59337;BME280;45115;52.002;4.686;2022-09-03T05:41:45;101058.75;;;14.31;72.47
59337;BME280;45115;52.002;4.686;2022-09-03T05:44:14;101058.69;;;14.36;72.11
59337;BME280;45115;52.002;4.686;2022-09-03T05:46:41;101057.53;;;14.42;72.16
59337;BME280;45115;52.002;4.686;2022-09-03T05:49:07;101063.88;;;14.46;71.41
59337;BME280;45115;52.002;4.686;2022-09-03T05:51:37;101066.47;;;14.52;71.58
59337;BME280;45115;52.002;4.686;2022-09-03T05:54:04;101069.06;;;14.57;71.95
59337;BME280;45115;52.002;4.686;2022-09-03T05:56:33;101074.34;;;14.62;72.01
59337;BME280;45115;52.002;4.686;2022-09-03T05:59:04;101071.31;;;14.69;71.78
59337;BME280;45115;52.002;4.686;2022-09-03T06:01:33;101067.50;;;14.75;71.25
59337;BME280;45115;52.002;4.686;2022-09-03T06:04:01;101068.16;;;14.86;70.54
59337;BME280;45115;52.002;4.686;2022-09-03T06:06:32;101074.72;;;14.94;70.15
59337;BME280;45115;52.002;4.686;2022-09-03T06:09:00;101064.72;;;14.99;69.69
59337;BME280;45115;52.002;4.686;2022-09-03T06:11:28;101064.84;;;15.08;69.59
59337;BME280;45115;52.002;4.686;2022-09-03T06:13:56;101069.81;;;15.15;69.31
59337;BME280;45115;52.002;4.686;2022-09-03T06:16:27;101068.34;;;15.23;69.32
59337;BME280;45115;52.002;4.686;2022-09-03T06:18:54;101074.63;;;15.32;68.74
59337;BME280;45115;52.002;4.686;2022-09-03T06:21:21;101073.44;;;15.38;68.75
59337;BME280;45115;52.002;4.686;2022-09-03T06:23:49;101074.84;;;15.50;68.68
59337;BME280;45115;52.002;4.686;2022-09-03T06:26:17;101074.94;;;15.59;68.63
59337;BME280;45115;52.002;4.686;2022-09-03T06:28:44;101085.69;;;15.73;67.79
59337;BME280;45115;52.002;4.686;2022-09-03T06:31:14;101072.41;;;15.81;67.74
59337;BME280;45115;52.002;4.686;2022-09-03T06:33:45;101071.63;;;15.95;67.29
59337;BME280;45115;52.002;4.686;2022-09-03T06:36:15;101063.50;;;16.00;66.53
59337;BME280;45115;52.002;4.686;2022-09-03T06:38:54;101062.50;;;16.10;65.59
59337;BME280;45115;52.002;4.686;2022-09-03T06:41:24;101064.84;;;16.26;65.01
59337;BME280;45115;52.002;4.686;2022-09-03T06:44:14;101067.56;;;16.49;64.60
59337;BME280;45115;52.002;4.686;2022-09-03T06:46:42;101067.53;;;16.63;64.27
59337;BME280;45115;52.002;4.686;2022-09-03T06:49:16;101088.00;;;16.81;63.82
59337;BME280;45115;52.002;4.686;2022-09-03T06:51:45;101081.91;;;16.90;63.38
59337;BME280;45115;52.002;4.686;2022-09-03T06:54:21;101083.06;;;16.97;62.84
59337;BME280;45115;52.002;4.686;2022-09-03T06:56:50;101088.19;;;17.08;62.32
59337;BME280;45115;52.002;4.686;2022-09-03T06:59:26;101089.22;;;17.21;62.56
59337;BME280;45115;52.002;4.686;2022-09-03T07:01:53;101092.63;;;17.35;61.77
59337;BME280;45115;52.002;4.686;2022-09-03T07:12:04;101096.78;;;18.58;56.11
59337;BME280;45115;52.002;4.686;2022-09-03T07:14:31;101096.31;;;18.47;57.19
59337;BME280;45115;52.002;4.686;2022-09-03T07:16:58;101091.56;;;18.44;56.16
59337;BME280;45115;52.002;4.686;2022-09-03T07:19:24;101088.88;;;18.44;56.20
59337;BME280;45115;52.002;4.686;2022-09-03T07:21:51;101090.13;;;18.46;55.72
59337;BME280;45115;52.002;4.686;2022-09-03T07:24:19;101089.81;;;18.39;55.31
59337;BME280;45115;52.002;4.686;2022-09-03T07:26:46;101102.31;;;18.62;55.34
59337;BME280;45115;52.002;4.686;2022-09-03T07:29:15;101096.94;;;18.70;55.49
59337;BME280;45115;52.002;4.686;2022-09-03T07:31:44;101090.28;;;18.85;54.46
59337;BME280;45115;52.002;4.686;2022-09-03T07:34:12;101102.44;;;19.09;54.56
59337;BME280;45115;52.002;4.686;2022-09-03T07:36:42;101111.56;;;19.44;53.23
59337;BME280;45115;52.002;4.686;2022-09-03T07:39:12;101103.06;;;19.72;53.24
59337;BME280;45115;52.002;4.686;2022-09-03T07:41:40;101106.88;;;19.71;52.33
59337;BME280;45115;52.002;4.686;2022-09-03T07:44:07;101105.38;;;19.82;52.02
59337;BME280;45115;52.002;4.686;2022-09-03T07:46:37;101106.53;;;20.11;51.54
59337;BME280;45115;52.002;4.686;2022-09-03T07:49:05;101107.03;;;20.35;50.46
59337;BME280;45115;52.002;4.686;2022-09-03T07:51:34;101102.69;;;20.42;49.57
59337;BME280;45115;52.002;4.686;2022-09-03T07:54:03;101111.66;;;20.68;49.15
59337;BME280;45115;52.002;4.686;2022-09-03T07:56:32;101105.16;;;21.24;48.70
59337;BME280;45115;52.002;4.686;2022-09-03T07:58:59;101114.22;;;21.78;47.76
59337;BME280;45115;52.002;4.686;2022-09-03T08:01:28;101119.69;;;22.19;46.88
59337;BME280;45115;52.002;4.686;2022-09-03T08:03:57;101117.56;;;22.66;44.98
59337;BME280;45115;52.002;4.686;2022-09-03T08:06:26;101119.00;;;22.76;44.69
59337;BME280;45115;52.002;4.686;2022-09-03T08:08:54;101124.25;;;23.13;44.06
59337;BME280;45115;52.002;4.686;2022-09-03T08:11:23;101120.91;;;23.20;43.35
59337;BME280;45115;52.002;4.686;2022-09-03T08:13:54;101118.09;;;23.00;43.99
59337;BME280;45115;52.002;4.686;2022-09-03T08:16:22;101120.16;;;22.21;44.60
59337;BME280;45115;52.002;4.686;2022-09-03T08:18:48;101124.84;;;21.49;46.91
59337;BME280;45115;52.002;4.686;2022-09-03T08:21:18;101124.50;;;20.92;48.69
59337;BME280;45115;52.002;4.686;2022-09-03T08:23:45;101135.47;;;20.66;49.46
59337;BME280;45115;52.002;4.686;2022-09-03T08:26:13;101139.22;;;20.52;50.19
59337;BME280;45115;52.002;4.686;2022-09-03T08:28:41;101143.78;;;20.61;49.59
59337;BME280;45115;52.002;4.686;2022-09-03T08:31:10;101146.59;;;20.64;50.55
59337;BME280;45115;52.002;4.686;2022-09-03T08:33:37;101142.97;;;20.60;51.16
59337;BME280;45115;52.002;4.686;2022-09-03T08:36:06;101138.94;;;20.66;50.75
59337;BME280;45115;52.002;4.686;2022-09-03T08:38:35;101149.28;;;20.64;50.72
59337;BME280;45115;52.002;4.686;2022-09-03T08:41:07;101151.25;;;20.97;50.09
59337;BME280;45115;52.002;4.686;2022-09-03T08:46:32;101148.84;;;21.17;49.64
59337;BME280;45115;52.002;4.686;2022-09-03T08:49:03;101143.84;;;21.41;48.05
59337;BME280;45115;52.002;4.686;2022-09-03T08:51:31;101140.56;;;21.94;46.95
59337;BME280;45115;52.002;4.686;2022-09-03T08:54:07;101139.06;;;22.21;46.26
59337;BME280;45115;52.002;4.686;2022-09-03T08:56:38;101146.56;;;22.40;44.86
59337;BME280;45115;52.002;4.686;2022-09-03T08:59:08;101146.00;;;22.35;43.57
59337;BME280;45115;52.002;4.686;2022-09-03T09:01:42;101141.69;;;22.46;44.39
59337;BME280;45115;52.002;4.686;2022-09-03T09:04:23;101150.44;;;22.80;44.26
59337;BME280;45115;52.002;4.686;2022-09-03T09:06:55;101146.13;;;23.08;42.92
59337;BME280;45115;52.002;4.686;2022-09-03T09:09:30;101148.47;;;23.09;42.01
59337;BME280;45115;52.002;4.686;2022-09-03T09:12:12;101141.25;;;22.85;43.03
59337;BME280;45115;52.002;4.686;2022-09-03T09:14:48;101150.09;;;22.82;43.05
59337;BME280;45115;52.002;4.686;2022-09-03T09:17:26;101148.72;;;23.04;43.56
59337;BME280;45115;52.002;4.686;2022-09-03T09:20:05;101146.47;;;23.06;43.22
59337;BME280;45115;52.002;4.686;2022-09-03T09:22:37;101148.69;;;23.17;42.99
59337;BME280;45115;52.002;4.686;2022-09-03T09:25:09;101151.88;;;23.35;43.19
59337;BME280;45115;52.002;4.686;2022-09-03T09:27:45;101154.94;;;23.33;42.87
59337;BME280;45115;52.002;4.686;2022-09-03T09:30:16;101153.94;;;23.26;42.57
59337;BME280;45115;52.002;4.686;2022-09-03T09:32:43;101152.97;;;23.18;43.28
59337;BME280;45115;52.002;4.686;2022-09-03T09:35:12;101152.06;;;23.42;42.65
59337;BME280;45115;52.002;4.686;2022-09-03T09:37:50;101154.81;;;23.30;42.94
59337;BME280;45115;52.002;4.686;2022-09-03T09:40:28;101162.19;;;23.61;42.98
59337;BME280;45115;52.002;4.686;2022-09-03T09:43:05;101154.84;;;23.62;42.54
59337;BME280;45115;52.002;4.686;2022-09-03T09:45:32;101155.47;;;23.55;42.75
59337;BME280;45115;52.002;4.686;2022-09-03T09:48:00;101163.34;;;23.77;41.95
59337;BME280;45115;52.002;4.686;2022-09-03T09:50:28;101165.41;;;23.83;42.34
59337;BME280;45115;52.002;4.686;2022-09-03T09:53:01;101161.03;;;23.95;42.23
59337;BME280;45115;52.002;4.686;2022-09-03T09:55:34;101162.44;;;24.21;41.67
59337;BME280;45115;52.002;4.686;2022-09-03T09:58:06;101161.66;;;24.40;40.66
59337;BME280;45115;52.002;4.686;2022-09-03T10:00:35;101159.16;;;24.51;40.39
59337;BME280;45115;52.002;4.686;2022-09-03T10:03:08;101160.03;;;24.55;40.79
59337;BME280;45115;52.002;4.686;2022-09-03T10:05:38;101168.28;;;24.62;40.87
59337;BME280;45115;52.002;4.686;2022-09-03T10:08:16;101159.84;;;24.84;40.70
59337;BME280;45115;52.002;4.686;2022-09-03T10:10:46;101159.97;;;24.91;40.96
59337;BME280;45115;52.002;4.686;2022-09-03T10:13:17;101162.91;;;25.25;40.32
59337;BME280;45115;52.002;4.686;2022-09-03T10:15:49;101156.06;;;25.55;39.58
59337;BME280;45115;52.002;4.686;2022-09-03T10:18:23;101149.81;;;25.78;39.54
59337;BME280;45115;52.002;4.686;2022-09-03T10:21:00;101141.88;;;26.23;38.78
59337;BME280;45115;52.002;4.686;2022-09-03T10:23:34;101147.97;;;26.12;38.34
59337;BME280;45115;52.002;4.686;2022-09-03T10:26:04;101143.13;;;25.98;38.49
59337;BME280;45115;52.002;4.686;2022-09-03T10:28:33;101143.16;;;26.02;38.54
59337;BME280;45115;52.002;4.686;2022-09-03T10:31:27;101137.69;;;25.98;38.03
59337;BME280;45115;52.002;4.686;2022-09-03T10:34:06;101138.03;;;25.97;38.36
59337;BME280;45115;52.002;4.686;2022-09-03T10:36:38;101139.03;;;26.39;38.89
59337;BME280;45115;52.002;4.686;2022-09-03T10:39:13;101135.72;;;26.57;38.55
59337;BME280;45115;52.002;4.686;2022-09-03T10:41:57;101138.06;;;26.58;37.99
59337;BME280;45115;52.002;4.686;2022-09-03T10:44:42;101133.22;;;26.40;37.82
59337;BME280;45115;52.002;4.686;2022-09-03T10:47:25;101129.09;;;26.54;38.09
59337;BME280;45115;52.002;4.686;2022-09-03T10:49:58;101130.56;;;26.48;38.29
59337;BME280;45115;52.002;4.686;2022-09-03T10:52:33;101127.19;;;26.92;38.55
59337;BME280;45115;52.002;4.686;2022-09-03T10:55:14;101128.84;;;26.66;36.83
59337;BME280;45115;52.002;4.686;2022-09-03T10:57:50;101127.84;;;26.82;37.94
59337;BME280;45115;52.002;4.686;2022-09-03T11:00:21;101128.16;;;27.15;37.19
59337;BME280;45115;52.002;4.686;2022-09-03T11:05:59;101121.16;;;27.14;36.90
59337;BME280;45115;52.002;4.686;2022-09-03T11:08:29;101122.41;;;27.69;36.86
59337;BME280;45115;52.002;4.686;2022-09-03T11:11:07;101127.25;;;27.97;35.58
59337;BME280;45115;52.002;4.686;2022-09-03T11:13:40;101130.81;;;28.09;36.04
59337;BME280;45115;52.002;4.686;2022-09-03T11:16:14;101134.25;;;27.95;34.20
59337;BME280;45115;52.002;4.686;2022-09-03T11:18:48;101126.91;;;27.54;33.50
59337;BME280;45115;52.002;4.686;2022-09-03T11:21:18;101127.22;;;27.38;33.74
59337;BME280;45115;52.002;4.686;2022-09-03T11:23:49;101119.81;;;27.42;34.05
59337;BME280;45115;52.002;4.686;2022-09-03T11:47:37;101121.63;;;28.50;32.47
59337;BME280;45115;52.002;4.686;2022-09-03T11:50:07;101122.06;;;28.59;31.97
59337;BME280;45115;52.002;4.686;2022-09-03T11:52:34;101124.66;;;28.30;32.23
59337;BME280;45115;52.002;4.686;2022-09-03T11:55:05;101117.31;;;28.42;33.08
59337;BME280;45115;52.002;4.686;2022-09-03T11:57:39;101122.06;;;28.70;32.36
59337;BME280;45115;52.002;4.686;2022-09-03T12:00:10;101116.97;;;28.58;32.64
59337;BME280;45115;52.002;4.686;2022-09-03T12:02:43;101123.25;;;28.73;31.33
59337;BME280;45115;52.002;4.686;2022-09-03T12:05:19;101126.75;;;28.77;31.74
59337;BME280;45115;52.002;4.686;2022-09-03T12:07:59;101118.22;;;28.89;31.34
59337;BME280;45115;52.002;4.686;2022-09-03T12:10:48;101122.91;;;29.18;31.87
59337;BME280;45115;52.002;4.686;2022-09-03T12:13:31;101126.38;;;28.78;31.37
59337;BME280;45115;52.002;4.686;2022-09-03T12:16:16;101120.88;;;28.53;32.08
59337;BME280;45115;52.002;4.686;2022-09-03T12:18:49;101121.19;;;28.37;32.07
59337;BME280;45115;52.002;4.686;2022-09-03T12:21:17;101125.84;;;28.36;32.61
59337;BME280;45115;52.002;4.686;2022-09-03T12:23:45;101123.09;;;28.25;32.07
59337;BME280;45115;52.002;4.686;2022-09-03T12:26:15;101120.41;;;28.33;32.83
59337;BME280;45115;52.002;4.686;2022-09-03T12:28:44;101120.41;;;28.36;32.79
59337;BME280;45115;52.002;4.686;2022-09-03T12:31:15;101120.91;;;28.86;32.01
59337;BME280;45115;52.002;4.686;2022-09-03T12:33:50;101118.25;;;29.15;31.61
59337;BME280;45115;52.002;4.686;2022-09-03T12:36:19;101117.47;;;29.22;30.81
59337;BME280;45115;52.002;4.686;2022-09-03T12:38:46;101122.56;;;29.27;31.25
59337;BME280;45115;52.002;4.686;2022-09-03T12:41:21;101117.47;;;29.03;30.26
59337;BME280;45115;52.002;4.686;2022-09-03T12:43:51;101111.22;;;29.10;31.39
59337;BME280;45115;52.002;4.686;2022-09-03T12:46:22;101115.13;;;29.31;30.53
59337;BME280;45115;52.002;4.686;2022-09-03T12:48:56;101113.19;;;29.42;30.43
59337;BME280;45115;52.002;4.686;2022-09-03T12:51:31;101111.59;;;29.20;30.24
59337;BME280;45115;52.002;4.686;2022-09-03T12:53:58;101112.78;;;29.26;30.41
59337;BME280;45115;52.002;4.686;2022-09-03T12:56:25;101113.16;;;29.21;29.60
59337;BME280;45115;52.002;4.686;2022-09-03T12:58:57;101108.88;;;29.34;29.97
59337;BME280;45115;52.002;4.686;2022-09-03T13:01:27;101107.28;;;29.44;30.05
59337;BME280;45115;52.002;4.686;2022-09-03T13:04:00;101107.31;;;29.48;30.30
59337;BME280;45115;52.002;4.686;2022-09-03T13:06:30;101113.56;;;29.30;29.22
59337;BME280;45115;52.002;4.686;2022-09-03T13:09:01;101102.25;;;29.24;30.61
59337;BME280;45115;52.002;4.686;2022-09-03T13:11:32;101098.34;;;29.07;30.57
59337;BME280;45115;52.002;4.686;2022-09-03T13:14:02;101100.28;;;29.21;30.17
59337;BME280;45115;52.002;4.686;2022-09-03T13:16:54;101099.91;;;29.26;30.15
59337;BME280;45115;52.002;4.686;2022-09-03T13:19:38;101103.03;;;29.39;30.18
59337;BME280;45115;52.002;4.686;2022-09-03T13:22:17;101093.63;;;29.40;29.26
59337;BME280;45115;52.002;4.686;2022-09-03T13:24:59;101090.13;;;29.62;29.72
59337;BME280;45115;52.002;4.686;2022-09-03T13:27:30;101100.69;;;29.63;29.94
59337;BME280;45115;52.002;4.686;2022-09-03T13:30:03;101095.94;;;29.82;29.07
59337;BME280;45115;52.002;4.686;2022-09-03T13:32:56;101095.13;;;29.92;29.73
59337;BME280;45115;52.002;4.686;2022-09-03T13:35:31;101095.59;;;29.43;29.59
59337;BME280;45115;52.002;4.686;2022-09-03T13:38:06;101093.28;;;29.35;29.58
59337;BME280;45115;52.002;4.686;2022-09-03T13:40:37;101101.84;;;29.44;29.98
59337;BME280;45115;52.002;4.686;2022-09-03T13:43:18;101091.31;;;29.35;29.90
59337;BME280;45115;52.002;4.686;2022-09-03T13:45:51;101090.50;;;29.46;30.03
59337;BME280;45115;52.002;4.686;2022-09-03T13:48:25;101100.25;;;29.65;30.02